Time;durP1;ratioP1;P1;durP2;ratioP2;P2;SDS_P1;SDS_P2;PMS_P1;PMS_P2;Temp;Humidity;BMP_temperature;BMP_pressure;BME280_temperature;BME280_humidity;BME280_pressure;Samples;Min_cycle;Max_cycle;Signal;HPM_P1;HPM_P2
2024/01/26 00:00:13;;;;;;;10.80;5.70;;;;;;;13.49;56.80;101760.78;676996;29;1567;-84
2024/01/26 00:00:36;;;;;;;9.00;5.28;;;;;;;13.52;56.88;101759.16;677285;29;1919;-85
2024/01/26 00:00:57;;;;;;;7.13;4.97;;;;;;;13.49;56.67;101755.53;674673;29;1274;-85
2024/01/26 00:01:17;;;;;;;6.93;5.03;;;;;;;13.49;56.87;101763.41;674293;29;1477;-85
2024/01/26 00:01:38;;;;;;;7.95;5.35;;;;;;;13.53;56.81;101758.31;677373;29;1148;-85
2024/01/26 00:02:01;;;;;;;8.55;5.75;;;;;;;13.47;56.86;101765.09;679914;29;1380;-85
2024/01/26 00:02:21;;;;;;;7.95;5.45;;;;;;;13.45;56.86;101769.41;682204;29;1491;-85
2024/01/26 00:02:42;;;;;;;8.47;5.20;;;;;;;13.47;56.87;101759.84;679983;29;995;-84
2024/01/26 00:03:03;;;;;;;9.00;5.00;;;;;;;13.48;56.85;101759.00;679855;29;1065;-86
2024/01/26 00:03:23;;;;;;;9.23;5.20;;;;;;;13.50;56.97;101762.56;678922;29;1608;-84
2024/01/26 00:03:44;;;;;;;7.53;5.20;;;;;;;13.50;56.77;101754.69;677285;29;1307;-85
2024/01/26 00:04:05;;;;;;;7.80;5.45;;;;;;;13.53;56.90;101762.69;679846;29;1191;-85
2024/01/26 00:04:25;;;;;;;8.43;5.32;;;;;;;13.61;56.96;101770.78;679548;29;1577;-85
2024/01/26 00:04:46;;;;;;;9.23;5.40;;;;;;;13.49;56.87;101756.44;679866;29;1115;-85
2024/01/26 00:05:07;;;;;;;8.15;5.10;;;;;;;13.57;56.97;101760.19;676862;29;1517;-84
2024/01/26 00:05:27;;;;;;;11.63;5.30;;;;;;;13.60;56.58;101763.75;674651;29;1638;-86
2024/01/26 00:05:48;;;;;;;12.20;5.70;;;;;;;13.53;56.72;101757.44;679801;29;1234;-85
2024/01/26 00:06:09;;;;;;;12.20;6.07;;;;;;;13.63;56.82;101763.88;679581;29;1972;-85
2024/01/26 00:06:29;;;;;;;9.75;6.30;;;;;;;13.60;56.82;101764.66;671921;29;1452;-85
2024/01/26 00:06:50;;;;;;;9.30;5.90;;;;;;;13.53;56.83;101757.44;674599;29;946;-83
2024/01/26 00:07:10;;;;;;;11.20;5.93;;;;;;;13.51;56.91;101759.13;674431;29;1134;-85
2024/01/26 00:07:31;;;;;;;12.38;5.22;;;;;;;13.52;56.87;101758.28;677178;29;1207;-85
2024/01/26 00:07:52;;;;;;;12.25;5.38;;;;;;;13.48;56.82;101756.38;674536;29;1598;-85
2024/01/26 00:08:15;;;;;;;10.43;5.17;;;;;;;13.54;56.96;101769.69;676916;29;1476;-85
2024/01/26 00:08:36;;;;;;;7.40;5.60;;;;;;;13.55;56.92;101760.97;677256;29;1047;-85
2024/01/26 00:08:56;;;;;;;6.22;4.95;;;;;;;13.57;56.96;101767.16;674007;29;1248;-84
2024/01/26 00:09:17;;;;;;;8.60;5.00;;;;;;;13.59;57.00;101768.13;676999;29;1618;-84
2024/01/26 00:09:37;;;;;;;9.32;5.13;;;;;;;13.58;56.94;101758.44;677156;29;988;-85
2024/01/26 00:09:58;;;;;;;10.37;5.30;;;;;;;13.57;57.06;101759.28;677298;29;875;-85
2024/01/26 00:10:18;;;;;;;7.03;4.72;;;;;;;13.60;56.92;101769.91;673276;29;1479;-84
2024/01/26 00:10:39;;;;;;;6.15;4.30;;;;;;;13.59;56.98;101765.50;674664;29;906;-85
2024/01/26 00:11:00;;;;;;;4.80;4.20;;;;;;;13.56;57.01;101757.50;677247;29;1239;-85
2024/01/26 00:11:20;;;;;;;5.38;4.50;;;;;;;13.54;56.90;101761.81;678573;29;1485;-85
2024/01/26 00:11:42;;;;;;;6.00;4.75;;;;;;;13.63;56.80;101772.59;677206;29;1192;-86
2024/01/26 00:12:02;;;;;;;6.70;4.88;;;;;;;13.60;56.61;101759.41;676280;29;1442;-86
2024/01/26 00:12:23;;;;;;;8.23;5.07;;;;;;;13.65;56.97;101765.66;672851;29;1603;-85
2024/01/26 00:12:43;;;;;;;8.50;5.00;;;;;;;13.62;56.97;101768.22;677102;29;1191;-85
2024/01/26 00:13:04;;;;;;;9.00;5.65;;;;;;;13.55;57.01;101755.75;676906;29;1403;-85
2024/01/26 00:13:24;;;;;;;8.40;5.60;;;;;;;13.62;56.88;101762.97;674157;29;1597;-84
2024/01/26 00:13:45;;;;;;;8.00;5.75;;;;;;;13.62;56.87;101759.44;674906;29;1412;-85
2024/01/26 00:14:06;;;;;;;8.37;5.30;;;;;;;13.58;57.16;101753.19;674655;29;1099;-85
2024/01/26 00:14:27;;;;;;;8.10;5.22;;;;;;;13.63;57.06;101767.34;672606;29;1020;-85
2024/01/26 00:14:48;;;;;;;6.70;4.63;;;;;;;13.64;56.79;101763.88;677327;29;875;-85
2024/01/26 00:15:08;;;;;;;6.78;4.85;;;;;;;13.67;56.75;101769.25;679716;28;1549;-85
2024/01/26 00:15:30;;;;;;;6.45;4.55;;;;;;;13.61;56.87;101755.94;679866;29;982;-85
2024/01/26 00:15:50;;;;;;;8.00;4.88;;;;;;;13.62;56.73;101765.59;680493;29;749;-85
2024/01/26 00:16:11;;;;;;;7.13;4.70;;;;;;;13.62;56.81;101767.31;680491;28;1499;-85
2024/01/26 00:16:32;;;;;;;7.57;5.00;;;;;;;13.63;56.91;101775.22;677209;29;1281;-86
2024/01/26 00:16:52;;;;;;;5.75;4.45;;;;;;;13.53;56.95;101762.69;674743;29;828;-85
2024/01/26 00:17:13;;;;;;;5.97;4.50;;;;;;;13.60;56.92;101769.00;679037;29;1492;-84
2024/01/26 00:17:33;;;;;;;6.00;4.50;;;;;;;13.58;57.13;101766.31;684087;28;1493;-85
2024/01/26 00:17:54;;;;;;;7.30;5.07;;;;;;;13.66;57.16;101767.44;681915;29;1344;-85
2024/01/26 00:18:14;;;;;;;9.37;5.20;;;;;;;13.66;56.87;101764.81;675995;29;1672;-85
2024/01/26 00:18:36;;;;;;;9.80;5.25;;;;;;;13.68;56.89;101757.91;672065;29;956;-85
2024/01/26 00:18:56;;;;;;;10.32;5.32;;;;;;;13.65;56.83;101759.53;671458;29;1498;-85
2024/01/26 00:19:17;;;;;;;9.13;5.25;;;;;;;13.66;56.78;101759.56;672194;29;1612;-85
2024/01/26 00:19:37;;;;;;;10.17;5.17;;;;;;;13.65;56.88;101752.53;674660;29;1133;-85
2024/01/26 00:19:58;;;;;;;9.88;5.15;;;;;;;13.67;56.84;101760.47;677285;29;1300;-85
2024/01/26 00:20:18;;;;;;;9.37;5.20;;;;;;;13.68;56.86;101762.25;675626;29;1588;-85
2024/01/26 00:20:39;;;;;;;8.57;5.50;;;;;;;13.73;56.82;101759.78;679701;29;1962;-85
2024/01/26 00:20:59;;;;;;;8.23;5.30;;;;;;;13.70;56.95;101756.22;679895;29;1483;-85
2024/01/26 00:21:20;;;;;;;11.10;5.70;;;;;;;13.69;57.08;101754.44;675303;29;1574;-85
2024/01/26 00:21:41;;;;;;;10.02;5.30;;;;;;;13.67;56.84;101758.75;674559;29;1023;-84
2024/01/26 00:22:01;;;;;;;10.40;5.60;;;;;;;13.60;57.11;101754.16;674717;29;1341;-84
2024/01/26 00:22:22;;;;;;;7.43;4.93;;;;;;;13.67;57.12;101760.47;677072;29;1595;-84
2024/01/26 00:22:42;;;;;;;7.47;4.78;;;;;;;13.66;56.96;101763.94;677176;29;1118;-86
2024/01/26 00:23:03;;;;;;;8.03;4.17;;;;;;;13.65;56.96;101757.78;681734;29;1041;-85
2024/01/26 00:23:24;;;;;;;11.20;4.57;;;;;;;13.65;57.27;101751.69;677558;29;1536;-85
2024/01/26 00:24:24;;;;;;;10.18;4.80;;;;;;;13.73;57.14;101762.41;674656;29;840;-85
2024/01/26 00:24:45;;;;;;;8.65;4.85;;;;;;;13.71;57.31;101759.75;677197;29;797;-84
2024/01/26 00:25:05;;;;;;;9.90;5.07;;;;;;;13.76;57.08;101760.75;671934;29;1170;-85
2024/01/26 00:25:26;;;;;;;8.80;4.97;;;;;;;13.66;56.82;101754.31;674190;29;1502;-85
2024/01/26 00:25:46;;;;;;;9.70;5.03;;;;;;;13.59;57.14;101752.38;674591;29;1167;-86
2024/01/26 00:26:07;;;;;;;9.80;5.20;;;;;;;13.68;57.07;101768.41;674575;29;1178;-85
2024/01/26 00:26:28;;;;;;;10.10;4.63;;;;;;;13.65;57.04;101751.69;677115;29;1304;-86
2024/01/26 00:26:48;;;;;;;8.13;4.77;;;;;;;13.73;57.22;101762.41;679985;29;773;-85
2024/01/26 00:27:09;;;;;;;7.25;4.40;;;;;;;13.67;57.32;101766.63;679289;29;1584;-85
2024/01/26 00:27:30;;;;;;;6.78;4.95;;;;;;;13.70;57.20;101760.56;671893;29;1371;-85
2024/01/26 00:27:50;;;;;;;7.45;5.00;;;;;;;13.68;57.16;101759.63;672436;29;1327;-85
2024/01/26 00:28:11;;;;;;;7.50;5.00;;;;;;;13.63;57.27;101762.09;678535;29;1504;-85
2024/01/26 00:28:31;;;;;;;7.30;4.60;;;;;;;13.63;57.38;101754.25;679900;29;982;-85
2024/01/26 00:28:52;;;;;;;6.37;4.70;;;;;;;13.65;57.11;101757.78;679359;29;801;-86
2024/01/26 00:29:13;;;;;;;6.78;4.75;;;;;;;13.69;57.12;101758.78;679480;29;1519;-85
2024/01/26 00:29:33;;;;;;;9.23;5.55;;;;;;;13.66;57.09;101758.69;677080;29;1341;-85
2024/01/26 00:29:54;;;;;;;9.40;5.35;;;;;;;13.66;57.23;101749.09;674688;29;1255;-85
2024/01/26 00:30:15;;;;;;;9.10;5.40;;;;;;;13.65;57.33;101762.16;674244;29;1595;-84
2024/01/26 00:30:35;;;;;;;6.95;4.93;;;;;;;13.63;57.26;101759.50;674811;29;1110;-85
2024/01/26 00:31:20;;;;;;;7.80;5.05;;;;;;;13.68;57.24;101760.53;677333;29;1299;-85
2024/01/26 00:31:40;;;;;;;10.48;5.35;;;;;;;13.56;57.86;101760.13;672038;29;1083;-85
2024/01/26 00:32:01;;;;;;;8.48;5.10;;;;;;;13.60;57.72;101759.41;674604;29;1210;-84
2024/01/26 00:32:22;;;;;;;8.20;4.95;;;;;;;13.60;57.35;101758.50;676850;29;1520;-84
2024/01/26 00:32:42;;;;;;;7.20;4.50;;;;;;;13.55;57.41;101759.25;677115;29;1272;-84
2024/01/26 00:33:03;;;;;;;6.28;4.45;;;;;;;13.62;57.68;101765.59;672034;29;1151;-85
2024/01/26 00:33:24;;;;;;;8.93;4.75;;;;;;;13.58;57.48;101755.81;674511;29;1479;-85
2024/01/26 00:33:45;;;;;;;11.60;5.07;;;;;;;13.63;57.42;101759.50;672006;29;1227;-85
2024/01/26 00:34:06;;;;;;;12.82;5.05;;;;;;;13.62;57.24;101746.31;674563;29;1178;-85
2024/01/26 00:34:26;;;;;;;10.32;5.18;;;;;;;13.63;57.54;101743.75;674292;29;1769;-85
2024/01/26 00:34:47;;;;;;;9.90;5.30;;;;;;;13.61;57.70;101748.06;674567;29;1181;-85
2024/01/26 00:35:08;;;;;;;8.27;4.90;;;;;;;13.62;57.54;101747.22;672004;29;967;-85
2024/01/26 00:35:29;;;;;;;7.32;4.60;;;;;;;13.64;57.34;101744.66;672313;29;1001;-85
2024/01/26 00:35:50;;;;;;;5.10;4.30;;;;;;;13.69;57.36;101748.28;676551;29;1398;-85
2024/01/26 00:36:12;;;;;;;6.00;5.00;;;;;;;13.68;57.41;101757.91;677697;29;1506;-85
2024/01/26 00:36:37;;;;;;;7.80;5.30;;;;;;;13.66;57.39;101749.09;679758;29;1103;-84
2024/01/26 00:36:59;;;;;;;9.13;5.47;;;;;;;13.70;57.50;101753.59;679852;29;1455;-84
2024/01/26 00:37:20;;;;;;;8.73;5.47;;;;;;;13.67;57.36;101745.66;676060;29;1493;-85
2024/01/26 00:37:41;;;;;;;8.03;5.10;;;;;;;13.65;57.26;101739.44;677120;29;1106;-85
2024/01/26 00:38:01;;;;;;;7.43;5.03;;;;;;;13.65;57.43;101742.06;677107;29;1739;-84
2024/01/26 00:38:22;;;;;;;6.85;4.25;;;;;;;13.67;57.34;101745.66;677753;29;1492;-85
2024/01/26 00:38:42;;;;;;;6.93;4.57;;;;;;;13.68;57.45;101747.41;676620;29;1099;-84
2024/01/26 00:39:03;;;;;;;6.43;4.30;;;;;;;13.65;57.46;101741.19;677172;29;1068;-84
2024/01/26 00:39:23;;;;;;;6.57;4.70;;;;;;;13.70;57.80;101740.47;677080;29;1457;-85
2024/01/26 00:39:44;;;;;;;6.03;4.65;;;;;;;13.74;57.39;101738.84;680178;29;1285;-85
2024/01/26 00:40:06;;;;;;;6.70;4.80;;;;;;;13.68;57.36;101742.16;677920;29;1047;-85
2024/01/26 00:40:27;;;;;;;7.72;4.90;;;;;;;13.61;57.49;101734.97;678657;29;1962;-84
2024/01/26 00:40:48;;;;;;;8.75;5.10;;;;;;;13.62;57.60;101738.44;677844;29;796;-85
2024/01/26 00:41:10;;;;;;;11.48;4.88;;;;;;;13.66;57.60;101737.72;677644;29;1489;-85
2024/01/26 00:41:31;;;;;;;9.82;4.55;;;;;;;13.68;57.51;101742.16;680288;29;1670;-85
2024/01/26 00:41:51;;;;;;;9.77;4.65;;;;;;;13.67;57.36;101736.88;680363;29;1434;-85
2024/01/26 00:42:12;;;;;;;7.00;4.88;;;;;;;13.68;57.54;101741.28;677948;29;1630;-84
2024/01/26 00:42:32;;;;;;;8.97;5.10;;;;;;;13.68;57.64;101739.56;682921;29;985;-84
2024/01/26 00:42:53;;;;;;;8.82;5.18;;;;;;;13.76;57.45;101744.16;675174;29;1160;-85
2024/01/26 00:43:14;;;;;;;8.03;5.10;;;;;;;13.72;57.73;101737.91;677297;29;1461;-84
2024/01/26 00:43:34;;;;;;;7.07;4.80;;;;;;;13.71;57.41;101739.63;677734;29;1100;-84
2024/01/26 00:43:55;;;;;;;7.20;4.80;;;;;;;13.69;57.36;101733.47;675190;29;1205;-85
2024/01/26 00:44:15;;;;;;;7.87;5.10;;;;;;;13.71;57.72;101737.00;675798;29;1550;-85
2024/01/26 00:44:37;;;;;;;6.78;4.90;;;;;;;13.76;57.22;101744.16;677864;29;1442;-85
2024/01/26 00:44:57;;;;;;;7.63;5.20;;;;;;;13.65;57.49;101730.69;677766;29;1278;-85
2024/01/26 00:45:18;;;;;;;7.63;4.80;;;;;;;13.72;57.46;101737.91;678689;29;1548;-85
2024/01/26 00:45:39;;;;;;;9.43;5.20;;;;;;;13.67;57.44;101729.91;680038;29;1297;-85
2024/01/26 00:45:59;;;;;;;9.07;5.10;;;;;;;13.66;57.69;101735.09;680487;29;773;-85
2024/01/26 00:46:20;;;;;;;7.55;4.85;;;;;;;13.64;57.40;101735.03;677265;29;1477;-85
2024/01/26 00:46:41;;;;;;;5.93;4.38;;;;;;;13.66;57.59;101733.34;677573;29;1313;-85
2024/01/26 00:47:01;;;;;;;5.88;4.32;;;;;;;13.61;57.80;101723.56;677819;29;827;-85
2024/01/26 00:47:22;;;;;;;7.00;4.63;;;;;;;13.67;57.70;101748.25;677534;29;1582;-85
2024/01/26 00:47:42;;;;;;;10.63;5.00;;;;;;;13.68;57.72;101730.78;677670;29;1254;-85
2024/01/26 00:48:04;;;;;;;13.52;5.20;;;;;;;13.67;57.79;101727.28;675206;29;1157;-85
2024/01/26 00:48:25;;;;;;;14.50;5.53;;;;;;;13.71;57.62;101730.88;672258;29;1502;-85
2024/01/26 00:48:45;;;;;;;10.98;5.22;;;;;;;13.71;57.53;101731.75;671911;29;810;-84
2024/01/26 00:49:06;;;;;;;9.45;5.65;;;;;;;13.74;57.67;101730.97;674982;29;1236;-85
2024/01/26 00:49:27;;;;;;;7.67;5.17;;;;;;;13.68;57.55;101721.19;679842;29;1623;-85
2024/01/26 00:49:47;;;;;;;7.13;4.97;;;;;;;13.71;57.56;101721.28;677728;29;1221;-84
2024/01/26 00:50:08;;;;;;;6.30;4.30;;;;;;;13.69;57.86;101727.31;675162;29;996;-84
2024/01/26 00:50:29;;;;;;;7.23;4.37;;;;;;;13.74;57.71;101732.69;674860;29;1536;-84
2024/01/26 00:50:50;;;;;;;7.95;4.43;;;;;;;13.74;57.72;101716.94;675265;29;833;-85
2024/01/26 00:51:11;;;;;;;7.32;4.38;;;;;;;13.78;57.56;101724.09;674878;29;1592;-84
2024/01/26 00:51:31;;;;;;;6.85;4.35;;;;;;;13.76;57.49;101715.28;675084;29;972;-84
2024/01/26 00:51:52;;;;;;;10.83;4.40;;;;;;;13.76;57.59;101724.03;675767;29;1060;-84
2024/01/26 00:52:14;;;;;;;12.00;4.80;;;;;;;13.80;57.52;101728.53;676372;29;1588;-84
2024/01/26 00:52:34;;;;;;;13.40;4.90;;;;;;;13.78;57.69;101716.22;675080;29;1353;-85
2024/01/26 00:52:55;;;;;;;8.32;4.20;;;;;;;13.72;57.75;101719.53;680345;29;1212;-85
2024/01/26 00:53:17;;;;;;;9.05;4.30;;;;;;;13.75;57.65;101721.38;680043;29;1456;-84
2024/01/26 00:53:38;;;;;;;7.15;4.20;;;;;;;13.73;57.39;101709.94;680357;29;1008;-84
2024/01/26 00:53:58;;;;;;;7.30;4.78;;;;;;;13.76;57.85;101720.53;677807;29;1298;-85
2024/01/26 00:54:19;;;;;;;7.63;4.60;;;;;;;13.80;57.45;101730.25;673486;29;1528;-84
2024/01/26 00:54:39;;;;;;;8.93;4.80;;;;;;;13.76;57.71;101715.28;675549;29;1728;-85
2024/01/26 00:55:00;;;;;;;8.20;4.65;;;;;;;13.77;57.90;101711.81;676885;29;1467;-84
2024/01/26 00:55:22;;;;;;;6.27;4.60;;;;;;;13.79;57.65;101723.25;675661;29;1487;-84
2024/01/26 00:55:43;;;;;;;7.35;4.43;;;;;;;13.82;57.45;101712.81;675015;29;1222;-85
2024/01/26 00:56:04;;;;;;;7.88;4.60;;;;;;;13.82;57.34;101718.97;672445;29;1261;-84
2024/01/26 00:56:25;;;;;;;7.72;4.68;;;;;;;13.80;57.64;101727.63;672225;29;1519;-85
2024/01/26 00:56:45;;;;;;;6.20;4.63;;;;;;;13.80;57.48;101731.16;674453;29;833;-85
2024/01/26 00:57:06;;;;;;;7.90;4.82;;;;;;;13.77;57.94;101724.94;675148;29;1116;-86
2024/01/26 00:57:26;;;;;;;7.95;4.63;;;;;;;13.78;57.73;101721.47;679868;29;1547;-86
2024/01/26 00:57:47;;;;;;;8.03;4.70;;;;;;;13.77;57.67;101715.31;677829;29;777;-85
2024/01/26 00:58:08;;;;;;;6.38;4.63;;;;;;;13.78;57.51;101724.09;677602;29;1147;-84
2024/01/26 00:58:28;;;;;;;7.17;4.40;;;;;;;13.84;57.74;101734.78;674738;29;1548;-85
2024/01/26 00:58:49;;;;;;;6.90;4.30;;;;;;;13.85;57.81;101726.91;677184;29;994;-86
2024/01/26 00:59:11;;;;;;;7.82;4.57;;;;;;;13.80;57.53;101718.03;677417;29;1500;-85
2024/01/26 00:59:31;;;;;;;7.80;5.00;;;;;;;13.80;57.49;101719.75;680434;29;1101;-86
2024/01/26 00:59:52;;;;;;;7.30;4.83;;;;;;;13.77;57.73;101723.19;681674;28;1071;-85
2024/01/26 01:00:13;;;;;;;7.40;4.83;;;;;;;13.78;57.57;101718.84;679970;29;1788;-85
2024/01/26 01:00:34;;;;;;;6.72;4.60;;;;;;;13.78;57.68;101721.47;677564;29;1968;-85
2024/01/26 01:00:54;;;;;;;7.40;5.00;;;;;;;13.76;57.67;101717.91;680320;29;1348;-85
2024/01/26 01:01:15;;;;;;;7.45;5.07;;;;;;;13.81;57.73;101718.91;680843;29;1465;-85
2024/01/26 01:01:36;;;;;;;7.80;5.30;;;;;;;13.88;57.51;101727.88;677772;29;1003;-85
2024/01/26 01:01:57;;;;;;;7.32;5.07;;;;;;;13.87;57.41;101724.34;680250;29;1196;-85
2024/01/26 01:02:18;;;;;;;7.68;5.20;;;;;;;13.79;57.44;101715.38;682614;28;1549;-86
2024/01/26 01:02:38;;;;;;;7.00;4.90;;;;;;;13.83;57.70;101719.88;680323;29;1081;-85
2024/01/26 01:02:59;;;;;;;6.80;4.60;;;;;;;13.75;57.89;101710.88;680461;29;811;-84
2024/01/26 01:03:20;;;;;;;5.40;3.97;;;;;;;13.81;57.76;101716.28;681414;28;1568;-85
2024/01/26 01:03:40;;;;;;;6.93;4.27;;;;;;;13.78;57.82;101709.22;682918;29;986;-84
2024/01/26 01:04:01;;;;;;;6.38;4.38;;;;;;;13.79;57.75;101720.63;677719;29;843;-85
2024/01/26 01:04:22;;;;;;;6.23;4.40;;;;;;;13.80;57.75;101730.25;680078;29;1504;-85
2024/01/26 01:04:42;;;;;;;5.18;4.30;;;;;;;13.81;57.94;101718.91;682032;29;1407;-85
2024/01/26 01:05:04;;;;;;;5.23;4.13;;;;;;;13.81;57.78;101721.53;679182;29;1159;-85
2024/01/26 01:05:25;;;;;;;5.32;3.95;;;;;;;13.81;58.17;101722.44;682708;28;1468;-86
2024/01/26 01:05:46;;;;;;;6.00;4.10;;;;;;;13.76;57.84;101710.03;677722;29;1194;-85
2024/01/26 01:06:06;;;;;;;7.47;4.32;;;;;;;13.80;57.79;101714.50;677732;29;1128;-84
2024/01/26 01:06:27;;;;;;;7.93;4.33;;;;;;;13.79;57.83;101713.66;679517;29;1483;-85
2024/01/26 01:06:47;;;;;;;7.00;4.15;;;;;;;13.78;57.88;101719.72;682975;29;1230;-85
2024/01/26 01:07:08;;;;;;;5.70;4.20;;;;;;;13.83;58.08;101728.63;680392;29;1019;-85
2024/01/26 01:07:28;;;;;;;5.25;4.32;;;;;;;13.85;57.76;101719.03;679980;29;1496;-85
2024/01/26 01:07:49;;;;;;;6.00;4.45;;;;;;;13.81;58.00;101705.78;675185;29;1202;-85
2024/01/26 01:08:32;;;;;;;6.80;4.70;;;;;;;13.92;57.94;101721.88;674883;29;1584;-85
2024/01/26 01:08:53;;;;;;;10.95;5.25;;;;;;;13.86;57.81;101712.09;674512;29;983;-85
2024/01/26 01:09:13;;;;;;;14.80;5.03;;;;;;;13.88;57.76;101712.13;677378;29;1580;-85
2024/01/26 01:09:34;;;;;;;13.68;4.80;;;;;;;13.81;57.70;101705.78;681236;29;995;-85
2024/01/26 01:09:55;;;;;;;10.90;4.47;;;;;;;13.81;57.88;101705.78;683528;28;868;-85
2024/01/26 01:10:16;;;;;;;8.00;4.80;;;;;;;13.85;57.91;101712.94;681328;29;1487;-85
2024/01/26 01:10:36;;;;;;;8.70;5.07;;;;;;;13.85;57.91;101703.31;680320;29;1252;-85
2024/01/26 01:10:57;;;;;;;7.03;4.73;;;;;;;13.82;57.80;101702.31;680423;29;769;-85
2024/01/26 01:11:18;;;;;;;6.68;4.50;;;;;;;13.88;58.00;101693.78;680044;28;1489;-85
2024/01/26 01:11:38;;;;;;;5.50;4.27;;;;;;;13.87;57.74;101700.75;680252;29;1113;-85
2024/01/26 01:11:59;;;;;;;6.63;4.95;;;;;;;13.89;57.78;101701.66;680468;29;883;-86
2024/01/26 01:12:20;;;;;;;7.13;5.30;;;;;;;13.94;57.78;101704.41;677355;29;1460;-85
2024/01/26 01:12:44;;;;;;;8.57;5.30;;;;;;;13.90;57.79;101698.19;675101;29;1785;-84
2024/01/26 01:13:05;;;;;;;8.68;4.75;;;;;;;13.88;58.02;101701.63;677669;29;982;-86
2024/01/26 01:13:25;;;;;;;8.70;4.50;;;;;;;13.88;57.82;101707.75;677262;29;1634;-85
2024/01/26 01:13:46;;;;;;;7.10;4.47;;;;;;;13.85;57.85;101703.31;677732;29;1127;-84
2024/01/26 01:14:08;;;;;;;5.85;4.15;;;;;;;13.82;57.91;101702.31;674962;29;1369;-84
2024/01/26 01:14:29;;;;;;;6.55;4.15;;;;;;;13.84;58.05;101698.03;678880;29;1487;-86
2024/01/26 01:14:49;;;;;;;7.15;4.72;;;;;;;13.87;57.97;101705.97;675109;29;788;-85
2024/01/26 01:15:13;;;;;;;8.30;4.88;;;;;;;13.88;57.84;101689.41;672251;29;1518;-85
2024/01/26 01:15:34;;;;;;;8.40;4.65;;;;;;;13.90;57.99;101694.69;674955;29;1726;-85
2024/01/26 01:15:55;;;;;;;7.45;3.92;;;;;;;13.87;57.70;101695.50;672500;29;1234;-85
2024/01/26 01:16:17;;;;;;;5.50;3.80;;;;;;;13.92;57.76;101695.63;673967;29;1368;-85
2024/01/26 01:16:39;;;;;;;5.07;3.97;;;;;;;13.84;57.95;101712.03;675099;29;1389;-85
2024/01/26 01:17:00;;;;;;;6.28;4.38;;;;;;;13.82;58.14;101697.97;677719;29;1265;-85
2024/01/26 01:17:20;;;;;;;6.57;4.50;;;;;;;13.83;57.98;101699.75;678765;29;1524;-85
2024/01/26 01:17:43;;;;;;;8.15;4.75;;;;;;;13.84;57.94;101690.16;680267;29;1104;-85
2024/01/26 01:18:03;;;;;;;7.40;4.65;;;;;;;13.88;58.00;101691.16;680133;29;1094;-84
2024/01/26 01:18:24;;;;;;;7.40;4.57;;;;;;;13.86;57.98;101683.22;680031;29;1480;-86
2024/01/26 01:18:45;;;;;;;5.63;4.43;;;;;;;13.82;57.92;101690.09;679773;29;1282;-85
2024/01/26 01:19:10;;;;;;;5.45;4.25;;;;;;;13.90;57.98;101692.06;680283;29;1074;-85
2024/01/26 01:19:55;;;;;;;6.13;4.40;;;;;;;13.94;57.96;101701.78;677671;29;1411;-85
2024/01/26 01:20:16;;;;;;;6.45;4.60;;;;;;;13.93;57.80;101700.03;673853;29;1466;-85
2024/01/26 01:20:36;;;;;;;6.70;4.60;;;;;;;13.94;58.14;101688.66;672472;29;1915;-84
2024/01/26 01:20:57;;;;;;;6.57;4.65;;;;;;;13.96;57.92;101690.50;675206;29;840;-85
2024/01/26 01:21:17;;;;;;;6.67;4.80;;;;;;;14.02;57.67;101699.41;676313;29;1500;-85
2024/01/26 01:21:38;;;;;;;7.60;4.88;;;;;;;13.98;57.65;101688.84;675095;29;1038;-85
2024/01/26 01:21:58;;;;;;;7.70;4.80;;;;;;;13.94;57.90;101684.31;672728;29;1239;-84
2024/01/26 01:22:19;;;;;;;9.40;4.35;;;;;;;13.89;57.97;101688.53;673304;29;1544;-85
2024/01/26 01:22:41;;;;;;;9.70;4.73;;;;;;;13.95;58.19;101690.47;677541;29;1102;-84
2024/01/26 01:23:02;;;;;;;10.40;4.63;;;;;;;13.95;57.72;101693.97;675054;29;1276;-84
2024/01/26 01:23:23;;;;;;;8.38;5.05;;;;;;;13.92;57.84;101693.91;676421;29;1432;-84
2024/01/26 01:23:44;;;;;;;7.57;4.70;;;;;;;13.88;58.01;101697.25;675106;29;1291;-85
2024/01/26 01:24:05;;;;;;;8.20;5.10;;;;;;;13.93;57.89;101689.53;675180;29;1205;-86
2024/01/26 01:24:26;;;;;;;7.15;5.00;;;;;;;13.89;58.16;101685.03;677358;29;1623;-84
2024/01/26 01:24:46;;;;;;;7.05;5.03;;;;;;;13.86;57.86;101688.47;676874;29;1327;-84
2024/01/26 01:25:09;;;;;;;7.37;4.70;;;;;;;13.89;57.91;101695.53;674860;29;1226;-85
2024/01/26 01:25:30;;;;;;;7.80;4.40;;;;;;;13.90;58.25;101687.69;677295;29;1493;-84
2024/01/26 01:25:50;;;;;;;7.25;4.25;;;;;;;13.89;58.17;101688.53;677640;29;761;-85
2024/01/26 01:26:11;;;;;;;6.17;4.20;;;;;;;13.88;58.24;101691.16;672162;29;1477;-84
2024/01/26 01:26:31;;;;;;;6.20;4.50;;;;;;;13.90;58.15;101690.31;672470;29;998;-85
2024/01/26 01:26:52;;;;;;;6.23;4.50;;;;;;;13.90;57.90;101695.56;675063;29;1459;-85
2024/01/26 01:27:13;;;;;;;6.10;4.50;;;;;;;13.90;58.11;101692.94;677248;29;1640;-85
2024/01/26 01:27:36;;;;;;;5.88;4.32;;;;;;;13.92;58.02;101683.41;675350;29;1045;-85
2024/01/26 01:27:56;;;;;;;8.55;4.40;;;;;;;13.94;58.29;101689.56;675022;29;833;-85
2024/01/26 01:28:17;;;;;;;8.75;4.65;;;;;;;13.97;58.12;101699.28;672846;29;1551;-84
2024/01/26 01:28:37;;;;;;;8.40;4.77;;;;;;;13.90;58.35;101690.31;674958;29;1019;-85
2024/01/26 01:28:58;;;;;;;7.57;4.90;;;;;;;13.99;58.26;101700.19;674905;29;564;-85
2024/01/26 01:29:19;;;;;;;7.65;4.70;;;;;;;13.95;58.14;101693.97;673308;29;1556;-85
2024/01/26 01:29:39;;;;;;;6.93;4.43;;;;;;;13.95;58.38;101687.84;674938;29;1185;-85
2024/01/26 01:30:00;;;;;;;5.80;4.10;;;;;;;14.02;57.92;101694.16;676786;29;1223;-84
2024/01/26 01:30:21;;;;;;;5.90;4.00;;;;;;;14.02;57.86;101699.41;678642;29;1532;-85
2024/01/26 01:30:41;;;;;;;5.85;4.35;;;;;;;14.02;58.09;101694.16;674937;29;1170;-85
2024/01/26 01:31:02;;;;;;;7.97;5.03;;;;;;;13.97;57.89;101687.03;672471;29;1080;-86
2024/01/26 01:31:22;;;;;;;7.57;5.25;;;;;;;14.02;58.04;101697.66;678836;29;1562;-85
2024/01/26 01:31:43;;;;;;;6.93;5.20;;;;;;;14.01;57.91;101695.00;680188;29;1278;-85
2024/01/26 01:32:04;;;;;;;5.68;4.70;;;;;;;14.06;57.88;101690.75;680193;29;1202;-86
2024/01/26 01:32:27;;;;;;;6.07;4.68;;;;;;;14.05;58.14;101694.22;674780;29;1624;-86
2024/01/26 01:32:47;;;;;;;6.70;4.82;;;;;;;14.08;57.86;101689.09;675019;29;879;-85
2024/01/26 01:33:08;;;;;;;7.10;5.10;;;;;;;14.05;57.63;101686.34;677616;29;1194;-85
2024/01/26 01:33:29;;;;;;;6.90;5.03;;;;;;;14.10;57.98;101697.88;675694;29;1550;-86
2024/01/26 01:33:50;;;;;;;7.22;4.53;;;;;;;14.09;57.91;101686.47;679368;29;1301;-85
2024/01/26 01:34:13;;;;;;;9.57;4.57;;;;;;;14.08;57.83;101694.34;677246;29;1598;-85
2024/01/26 01:34:34;;;;;;;11.35;4.95;;;;;;;14.07;57.76;101692.56;677706;29;986;-85
2024/01/26 01:34:55;;;;;;;10.82;4.97;;;;;;;14.09;57.83;101693.50;678465;29;820;-85
2024/01/26 01:35:16;;;;;;;6.47;4.87;;;;;;;14.08;57.74;101683.84;680722;28;1510;-84
2024/01/26 01:35:36;;;;;;;6.82;4.75;;;;;;;14.08;57.93;101689.09;680973;29;1027;-85
2024/01/26 01:35:57;;;;;;;6.93;4.90;;;;;;;14.05;57.88;101683.72;680386;29;786;-85
2024/01/26 01:36:17;;;;;;;8.20;4.80;;;;;;;14.10;57.79;101690.00;677372;29;1852;-85
2024/01/26 01:36:38;;;;;;;8.30;4.67;;;;;;;14.11;58.02;101683.94;677867;29;1645;-86
2024/01/26 01:36:59;;;;;;;8.80;4.78;;;;;;;14.10;57.92;101687.38;677686;29;805;-85
2024/01/26 01:37:19;;;;;;;6.77;4.60;;;;;;;14.10;57.89;101682.13;674125;29;1449;-85
2024/01/26 01:37:40;;;;;;;6.18;4.70;;;;;;;14.05;57.87;101681.09;673644;29;1685;-85
2024/01/26 01:38:01;;;;;;;6.07;4.50;;;;;;;14.05;57.82;101683.72;677549;29;1370;-85
2024/01/26 01:38:21;;;;;;;7.15;4.82;;;;;;;14.01;58.03;101687.13;677351;29;1535;-85
2024/01/26 01:38:42;;;;;;;8.70;5.13;;;;;;;14.05;58.16;101700.38;676833;29;1265;-85
2024/01/26 01:39:02;;;;;;;9.57;5.35;;;;;;;13.97;58.24;101681.78;680195;29;1210;-84
2024/01/26 01:39:23;;;;;;;8.75;5.20;;;;;;;14.05;58.04;101686.34;677392;29;1769;-84
2024/01/26 01:39:43;;;;;;;8.07;5.00;;;;;;;14.09;58.08;101690.88;674921;29;1287;-85
2024/01/26 01:40:04;;;;;;;7.35;5.00;;;;;;;14.12;58.10;101693.59;674973;29;1140;-86
2024/01/26 01:40:25;;;;;;;6.90;4.70;;;;;;;14.12;57.91;101696.22;679183;29;1923;-85
2024/01/26 01:40:45;;;;;;;6.53;4.73;;;;;;;14.10;57.85;101684.75;680359;29;892;-85
2024/01/26 01:41:06;;;;;;;7.88;4.93;;;;;;;14.11;58.18;101690.09;680250;29;1034;-85